createdAt,value
2022-09-18T00:00:49.865Z,7.60
2022-09-18T00:01:49.913Z,5.60
2022-09-18T00:02:49.917Z,4.50
2022-09-18T00:03:49.957Z,3.70
2022-09-18T00:04:49.853Z,6.60
2022-09-18T00:05:49.831Z,3.30
2022-09-18T00:06:49.932Z,4.10
2022-09-18T00:07:49.789Z,4.00
2022-09-18T00:08:49.777Z,5.20
2022-09-18T00:09:49.771Z,3.90
2022-09-18T00:10:49.782Z,4.30
2022-09-18T00:11:49.748Z,6.40
2022-09-18T00:12:49.767Z,4.10
2022-09-18T00:13:49.736Z,3.30
2022-09-18T00:14:49.720Z,3.40
2022-09-18T00:15:49.801Z,2.10
2022-09-18T00:16:49.700Z,4.70
2022-09-18T00:17:49.672Z,5.60
2022-09-18T00:18:49.667Z,4.00
2022-09-18T00:19:49.661Z,5.30
2022-09-18T00:20:49.651Z,4.70
2022-09-18T00:21:49.692Z,6.00
2022-09-18T00:22:49.753Z,2.60
2022-09-18T00:23:49.618Z,5.00
2022-09-18T00:24:49.602Z,6.90
2022-09-18T00:25:49.582Z,3.90
2022-09-18T00:26:49.589Z,4.30
2022-09-18T00:27:49.561Z,4.00
2022-09-18T00:28:49.580Z,4.80
2022-09-18T00:29:49.544Z,5.00
2022-09-18T00:30:49.538Z,4.70
2022-09-18T00:31:49.624Z,3.90
2022-09-18T00:32:49.509Z,3.00
2022-09-18T00:33:49.508Z,6.70
2022-09-18T00:34:49.502Z,5.20
2022-09-18T00:35:49.479Z,3.70
2022-09-18T00:36:49.501Z,5.70
2022-09-18T00:37:49.465Z,4.10
2022-09-18T00:38:49.572Z,4.10
2022-09-18T00:39:49.433Z,4.30
2022-09-18T00:40:49.430Z,5.20
2022-09-18T00:41:49.408Z,3.30
2022-09-18T00:42:49.428Z,5.80
2022-09-18T00:43:49.386Z,2.70
2022-09-18T00:44:49.386Z,4.20
2022-09-18T00:45:49.389Z,6.40
2022-09-18T00:46:56.424Z,4.60
2022-09-18T00:47:49.353Z,3.90
2022-09-18T00:48:49.347Z,3.70
2022-09-18T00:49:49.325Z,4.60
2022-09-18T00:50:49.314Z,3.40
2022-09-18T00:51:49.310Z,3.70
2022-09-18T00:52:49.310Z,5.20
2022-09-18T00:53:49.276Z,5.60
2022-09-18T00:54:49.403Z,4.80
2022-09-18T00:55:49.266Z,5.30
2022-09-18T00:56:49.254Z,3.80
2022-09-18T00:57:49.233Z,4.90
2022-09-18T00:58:49.238Z,2.70
2022-09-18T00:59:49.211Z,3.70
2022-09-18T01:00:49.242Z,5.10
2022-09-18T01:01:49.322Z,4.60
2022-09-18T01:02:49.184Z,6.40
2022-09-18T01:03:49.181Z,4.60
2022-09-18T01:04:49.187Z,4.80
2022-09-18T01:05:49.158Z,3.90
2022-09-18T01:06:49.146Z,4.80
2022-09-18T01:07:49.130Z,4.60
2022-09-18T01:08:49.129Z,4.00
2022-09-18T01:09:49.102Z,4.70
2022-09-18T01:10:49.210Z,3.10
2022-09-18T01:11:49.080Z,4.60
2022-09-18T01:12:49.076Z,4.90
2022-09-18T01:13:49.077Z,5.30
2022-09-18T01:14:49.068Z,4.90
2022-09-18T01:15:49.237Z,4.40
2022-09-18T01:16:49.031Z,4.20
2022-09-18T01:17:49.032Z,4.60
2022-09-18T01:18:49.016Z,4.50
2022-09-18T01:19:49.032Z,3.60
2022-09-18T01:20:48.993Z,4.00
2022-09-18T01:21:49.000Z,5.30
2022-09-18T01:22:48.967Z,6.60
2022-09-18T01:23:48.950Z,4.00
2022-09-18T01:24:48.950Z,6.00
2022-09-18T01:25:48.954Z,3.10
2022-09-18T01:26:49.043Z,3.40
2022-09-18T01:27:48.928Z,5.90
2022-09-18T01:28:48.914Z,2.50
2022-09-18T01:29:48.885Z,4.70
2022-09-18T01:30:48.881Z,6.40
2022-09-18T01:31:48.927Z,5.40
2022-09-18T01:32:48.874Z,6.00
2022-09-18T01:33:48.843Z,3.90
2022-09-18T01:34:48.848Z,4.90
2022-09-18T01:35:48.863Z,5.40
2022-09-18T01:36:48.836Z,5.20
2022-09-18T01:37:48.805Z,6.10
2022-09-18T01:38:48.798Z,4.50
2022-09-18T01:39:48.790Z,3.60
2022-09-18T01:40:48.773Z,4.80
2022-09-18T01:41:48.756Z,4.70
2022-09-18T01:42:48.880Z,3.90
2022-09-18T01:43:48.734Z,5.50
2022-09-18T01:44:48.756Z,5.10
2022-09-18T01:45:48.746Z,3.30
2022-09-18T01:46:48.761Z,4.60
2022-09-18T01:47:48.691Z,5.90
2022-09-18T01:48:48.685Z,5.60
2022-09-18T01:49:48.686Z,4.50
2022-09-18T01:50:48.681Z,2.80
2022-09-18T01:51:48.645Z,6.20
2022-09-18T01:52:48.640Z,5.10
2022-09-18T01:53:48.633Z,4.80
2022-09-18T01:54:48.636Z,4.90
2022-09-18T01:55:48.608Z,3.70
2022-09-18T01:56:48.611Z,4.70
2022-09-18T01:57:48.596Z,5.50
2022-09-18T01:58:48.688Z,7.70
2022-09-18T01:59:48.560Z,6.60
2022-09-18T02:00:48.561Z,7.70
2022-09-18T02:01:48.693Z,7.80
2022-09-18T02:02:48.637Z,8.80
2022-09-18T02:03:48.569Z,5.40
2022-09-18T02:04:48.508Z,5.90
2022-09-18T02:05:48.494Z,4.00
2022-09-18T02:06:48.514Z,5.50
2022-09-18T02:07:48.492Z,4.20
2022-09-18T02:08:48.480Z,7.50
2022-09-18T02:09:48.452Z,5.50
2022-09-18T02:10:48.444Z,4.20
2022-09-18T02:11:48.439Z,5.20
2022-09-18T02:12:48.438Z,4.90
2022-09-18T02:13:48.406Z,5.10
2022-09-18T02:14:48.523Z,4.80
2022-09-18T02:15:48.454Z,5.30
2022-09-18T02:16:48.399Z,7.00
2022-09-18T02:17:48.376Z,5.60
2022-09-18T02:18:48.428Z,6.40
2022-09-18T02:19:48.356Z,6.60
2022-09-18T02:20:48.333Z,5.00
2022-09-18T02:21:48.329Z,5.60
2022-09-18T02:22:48.318Z,7.10
2022-09-18T02:23:48.307Z,6.70
2022-09-18T02:24:48.291Z,4.30
2022-09-18T02:25:48.281Z,5.80
2022-09-18T02:26:48.292Z,5.10
2022-09-18T02:27:48.279Z,5.60
2022-09-18T02:28:48.246Z,5.50
2022-09-18T02:29:48.254Z,5.80
2022-09-18T02:30:48.357Z,5.80
2022-09-18T02:31:48.322Z,5.10
2022-09-18T02:32:48.203Z,4.60
2022-09-18T02:33:48.245Z,5.60
2022-09-18T02:34:48.181Z,4.20
2022-09-18T02:35:48.172Z,8.10
2022-09-18T02:36:48.164Z,8.30
2022-09-18T02:37:48.166Z,5.00
2022-09-18T02:38:48.174Z,7.50
2022-09-18T02:39:48.141Z,5.90
2022-09-18T02:40:48.127Z,6.10
2022-09-18T02:41:48.107Z,5.70
2022-09-18T02:42:48.093Z,5.60
2022-09-18T02:43:48.090Z,5.80
2022-09-18T02:44:48.121Z,7.20
2022-09-18T02:45:48.074Z,6.40
2022-09-18T02:46:48.314Z,7.30
2022-09-18T02:47:55.557Z,6.50
2022-09-18T02:48:48.156Z,5.00
2022-09-18T02:49:48.016Z,7.10
2022-09-18T02:50:48.005Z,7.70
2022-09-18T02:51:47.992Z,5.30
2022-09-18T02:52:48.033Z,5.40
2022-09-18T02:53:47.986Z,7.70
2022-09-18T02:54:47.962Z,5.80
2022-09-18T02:55:47.956Z,7.00
2022-09-18T02:56:47.957Z,4.50
2022-09-18T02:57:47.924Z,4.20
2022-09-18T02:58:47.946Z,6.30
2022-09-18T02:59:47.902Z,5.70
2022-09-18T03:00:47.911Z,6.00
2022-09-18T03:01:48.014Z,5.40
2022-09-18T03:02:48.039Z,5.60
2022-09-18T03:03:47.912Z,10.00
2022-09-18T03:04:47.870Z,8.00
2022-09-18T03:05:47.836Z,7.30
2022-09-18T03:06:47.834Z,6.10
2022-09-18T03:07:47.815Z,5.50
2022-09-18T03:08:47.816Z,7.60
2022-09-18T03:09:47.805Z,6.40
2022-09-18T03:10:47.805Z,6.90
2022-09-18T03:11:47.771Z,3.40
2022-09-18T03:12:47.766Z,8.00
2022-09-18T03:13:47.750Z,5.40
2022-09-18T03:14:47.766Z,6.70
2022-09-18T03:15:47.806Z,6.50
2022-09-18T03:16:47.723Z,4.40
2022-09-18T03:17:47.731Z,5.80
2022-09-18T03:18:47.862Z,5.30
2022-09-18T03:19:47.719Z,4.30
2022-09-18T03:20:47.717Z,4.50
2022-09-18T03:21:47.684Z,5.50
2022-09-18T03:22:47.658Z,4.50
2022-09-18T03:23:47.643Z,4.70
2022-09-18T03:24:47.649Z,6.70
2022-09-18T03:25:47.624Z,4.50
2022-09-18T03:26:47.616Z,5.80
2022-09-18T03:27:47.601Z,4.40
2022-09-18T03:28:47.605Z,6.20
2022-09-18T03:29:47.577Z,5.40
2022-09-18T03:30:47.606Z,6.40
2022-09-18T03:31:47.652Z,5.50
2022-09-18T03:32:47.567Z,4.80
2022-09-18T03:33:47.544Z,5.40
2022-09-18T03:34:47.651Z,5.00
2022-09-18T03:35:47.549Z,6.50
2022-09-18T03:36:47.509Z,4.10
2022-09-18T03:37:47.502Z,6.60
2022-09-18T03:38:47.489Z,5.00
2022-09-18T03:39:47.516Z,4.80
2022-09-18T03:40:48.034Z,6.00
2022-09-18T03:41:47.448Z,5.40
2022-09-18T03:42:47.483Z,7.00
2022-09-18T03:43:47.450Z,3.90
2022-09-18T03:44:47.436Z,5.30
2022-09-18T03:45:47.405Z,6.60
2022-09-18T03:46:47.496Z,5.30
2022-09-18T03:47:47.380Z,7.90
2022-09-18T03:48:47.536Z,5.70
2022-09-18T03:49:47.364Z,6.10
2022-09-18T03:50:47.506Z,5.70
2022-09-18T03:51:47.336Z,4.60
2022-09-18T03:52:51.107Z,6.60
2022-09-18T03:53:47.328Z,5.30
2022-09-18T03:54:47.326Z,5.50
2022-09-18T03:55:47.314Z,4.10
2022-09-18T03:56:47.300Z,6.40
2022-09-18T03:57:47.290Z,5.00
2022-09-18T03:58:47.285Z,5.80
2022-09-18T03:59:47.259Z,5.10
2022-09-18T04:00:47.255Z,7.60
2022-09-18T04:01:47.314Z,4.80
2022-09-18T04:02:47.282Z,6.90
2022-09-18T04:03:47.219Z,5.40
2022-09-18T04:04:47.214Z,7.00
2022-09-18T04:05:47.203Z,6.20
2022-09-18T04:06:47.323Z,5.00
2022-09-18T04:07:47.167Z,6.60
2022-09-18T04:08:47.168Z,5.60
2022-09-18T04:09:47.145Z,4.90
2022-09-18T04:10:47.141Z,8.30
2022-09-18T04:11:47.138Z,7.20
2022-09-18T04:12:47.106Z,5.40
2022-09-18T04:13:47.172Z,4.90
2022-09-18T04:14:47.106Z,6.80
2022-09-18T04:15:47.102Z,5.10
2022-09-18T04:16:47.086Z,3.40
2022-09-18T04:17:47.057Z,7.50
2022-09-18T04:18:47.054Z,6.10
2022-09-18T04:19:51.335Z,4.80
2022-09-18T04:20:48.018Z,6.00
2022-09-18T04:21:47.029Z,5.00
2022-09-18T04:22:47.114Z,5.60
2022-09-18T04:23:47.016Z,5.90
2022-09-18T04:24:46.975Z,7.50
2022-09-18T04:25:46.980Z,6.70
2022-09-18T04:26:46.970Z,4.90
2022-09-18T04:27:46.965Z,5.80
2022-09-18T04:28:46.965Z,7.50
2022-09-18T04:29:46.925Z,6.00
2022-09-18T04:30:46.911Z,4.10
2022-09-18T04:31:46.975Z,7.80
2022-09-18T04:32:46.901Z,5.40
2022-09-18T04:33:46.895Z,4.40
2022-09-18T04:34:46.865Z,7.90
2022-09-18T04:35:46.859Z,6.20
2022-09-18T04:36:46.858Z,6.10
2022-09-18T04:37:46.851Z,4.40
2022-09-18T04:38:46.939Z,5.00
2022-09-18T04:39:46.826Z,5.90
2022-09-18T04:40:46.814Z,5.90
2022-09-18T04:41:46.802Z,5.90
2022-09-18T04:42:46.801Z,4.90
2022-09-18T04:43:46.811Z,5.80
2022-09-18T04:44:46.781Z,5.60
2022-09-18T04:45:46.750Z,4.70
2022-09-18T04:46:46.797Z,7.80
2022-09-18T04:47:46.769Z,6.20
2022-09-18T04:48:54.266Z,7.20
2022-09-18T04:49:46.708Z,8.50
2022-09-18T04:50:46.691Z,5.40
2022-09-18T04:51:46.684Z,4.60
2022-09-18T04:52:46.681Z,5.20
2022-09-18T04:53:46.676Z,7.20
2022-09-18T04:54:46.782Z,5.40
2022-09-18T04:55:46.652Z,4.80
2022-09-18T04:56:46.643Z,6.60
2022-09-18T04:57:48.335Z,6.00
2022-09-18T04:58:46.603Z,5.90
2022-09-18T04:59:46.607Z,9.70
2022-09-18T05:00:46.635Z,5.90
2022-09-18T05:01:46.637Z,8.20
2022-09-18T05:02:46.610Z,5.20
2022-09-18T05:03:46.570Z,6.40
2022-09-18T05:04:46.562Z,9.50
2022-09-18T05:05:46.540Z,6.50
2022-09-18T05:06:46.519Z,8.70
2022-09-18T05:07:46.518Z,8.50
2022-09-18T05:08:46.524Z,7.90
2022-09-18T05:09:46.490Z,6.90
2022-09-18T05:10:46.604Z,5.10
2022-09-18T05:11:46.474Z,5.60
2022-09-18T05:12:46.453Z,6.50
2022-09-18T05:13:46.474Z,8.30
2022-09-18T05:14:46.441Z,6.00
2022-09-18T05:15:46.471Z,6.90
2022-09-18T05:16:46.410Z,6.40
2022-09-18T05:17:46.415Z,6.10
2022-09-18T05:18:46.409Z,7.50
2022-09-18T05:19:46.378Z,8.50
2022-09-18T05:20:46.362Z,5.80
2022-09-18T05:21:46.363Z,6.60
2022-09-18T05:22:46.353Z,7.40
2022-09-18T05:23:46.336Z,8.10
2022-09-18T05:24:46.359Z,4.90
2022-09-18T05:25:46.314Z,7.10
2022-09-18T05:26:46.421Z,7.40
2022-09-18T05:27:46.303Z,8.70
2022-09-18T05:28:46.285Z,6.20
2022-09-18T05:29:46.288Z,7.50
2022-09-18T05:30:46.254Z,6.40
2022-09-18T05:31:46.334Z,6.00
2022-09-18T05:32:46.244Z,5.50
2022-09-18T05:33:46.225Z,5.30
2022-09-18T05:34:46.211Z,7.80
2022-09-18T05:35:46.207Z,7.70
2022-09-18T05:36:46.215Z,6.70
2022-09-18T05:37:46.182Z,6.10
2022-09-18T05:38:46.179Z,7.80
2022-09-18T05:39:46.167Z,7.40
2022-09-18T05:40:46.160Z,8.20
2022-09-18T05:41:46.138Z,5.90
2022-09-18T05:42:46.362Z,8.30
2022-09-18T05:43:46.122Z,6.20
2022-09-18T05:44:46.132Z,6.30
2022-09-18T05:45:46.094Z,5.70
2022-09-18T05:46:46.143Z,5.50
2022-09-18T05:47:46.095Z,7.20
2022-09-18T05:48:46.057Z,10.00
2022-09-18T05:49:46.053Z,5.70
2022-09-18T05:50:46.037Z,6.70
2022-09-18T05:51:46.050Z,7.80
2022-09-18T05:52:46.015Z,6.80
2022-09-18T05:53:46.011Z,7.60
2022-09-18T05:54:46.010Z,8.90
2022-09-18T05:55:46.010Z,5.60
2022-09-18T05:56:46.005Z,8.00
2022-09-18T05:57:45.975Z,8.60
2022-09-18T05:58:46.071Z,9.30
2022-09-18T05:59:45.999Z,8.50
2022-09-18T06:00:45.940Z,7.40
2022-09-18T06:01:47.341Z,7.10
2022-09-18T06:02:45.955Z,7.30
2022-09-18T06:03:45.907Z,7.50
2022-09-18T06:04:45.918Z,6.10
2022-09-18T06:05:45.893Z,6.20
2022-09-18T06:06:45.865Z,6.50
2022-09-18T06:07:45.860Z,6.90
2022-09-18T06:08:45.853Z,7.30
2022-09-18T06:09:45.853Z,7.70
2022-09-18T06:10:45.822Z,6.90
2022-09-18T06:11:45.816Z,4.90
2022-09-18T06:12:45.810Z,5.90
2022-09-18T06:13:45.800Z,7.10
2022-09-18T06:14:45.894Z,7.30
2022-09-18T06:15:45.817Z,7.30
2022-09-18T06:16:45.833Z,6.80
2022-09-18T06:17:45.778Z,7.00
2022-09-18T06:18:45.747Z,8.10
2022-09-18T06:19:45.742Z,6.70
2022-09-18T06:20:45.712Z,7.10
2022-09-18T06:21:45.705Z,8.10
2022-09-18T06:22:45.701Z,7.20
2022-09-18T06:23:45.706Z,8.00
2022-09-18T06:24:45.669Z,8.30
2022-09-18T06:25:45.663Z,7.90
2022-09-18T06:26:45.659Z,6.70
2022-09-18T06:27:45.664Z,9.30
2022-09-18T06:28:45.625Z,5.70
2022-09-18T06:29:45.627Z,8.10
2022-09-18T06:30:45.721Z,5.60
2022-09-18T06:31:45.672Z,5.50
2022-09-18T06:32:45.580Z,7.80
2022-09-18T06:33:45.576Z,7.10
2022-09-18T06:34:45.568Z,5.60
2022-09-18T06:35:45.575Z,6.30
2022-09-18T06:36:45.554Z,6.60
2022-09-18T06:37:45.537Z,8.00
2022-09-18T06:38:45.535Z,5.60
2022-09-18T06:39:45.534Z,5.20
2022-09-18T06:40:45.589Z,7.20
2022-09-18T06:41:45.490Z,6.70
2022-09-18T06:42:46.232Z,5.10
2022-09-18T06:43:45.471Z,3.60
2022-09-18T06:44:45.453Z,5.50
2022-09-18T06:45:45.485Z,5.50
2022-09-18T06:46:45.602Z,4.90
2022-09-18T06:47:45.424Z,7.10
2022-09-18T06:48:45.427Z,6.40
2022-09-18T06:49:52.925Z,4.70
2022-09-18T06:50:45.400Z,6.30
2022-09-18T06:51:45.381Z,4.00
2022-09-18T06:52:45.365Z,4.20
2022-09-18T06:53:45.360Z,6.30
2022-09-18T06:54:45.352Z,3.40
2022-09-18T06:55:45.335Z,4.70
2022-09-18T06:56:45.319Z,5.30
2022-09-18T06:57:45.312Z,4.40
2022-09-18T06:58:45.307Z,4.90
2022-09-18T06:59:45.292Z,4.30
2022-09-18T07:00:45.337Z,4.30
2022-09-18T07:01:45.361Z,6.40
2022-09-18T07:02:45.378Z,7.10
2022-09-18T07:03:45.263Z,5.60
2022-09-18T07:04:45.240Z,4.80
2022-09-18T07:05:45.242Z,5.20
2022-09-18T07:06:45.210Z,6.10
2022-09-18T07:07:45.221Z,5.20
2022-09-18T07:08:45.196Z,3.10
2022-09-18T07:09:45.185Z,4.50
2022-09-18T07:10:45.182Z,6.50
2022-09-18T07:11:45.161Z,4.40
2022-09-18T07:12:45.158Z,4.20
2022-09-18T07:13:45.144Z,4.10
2022-09-18T07:14:45.123Z,4.90
2022-09-18T07:15:45.178Z,5.40
2022-09-18T07:16:45.110Z,5.10
2022-09-18T07:17:45.142Z,4.00
2022-09-18T07:18:45.196Z,4.40
2022-09-18T07:19:45.081Z,4.70
2022-09-18T07:20:45.067Z,5.20
2022-09-18T07:21:45.046Z,5.50
2022-09-18T07:22:47.447Z,4.40
2022-09-18T07:23:45.040Z,3.80
2022-09-18T07:24:45.009Z,4.20
2022-09-18T07:25:45.004Z,4.80
2022-09-18T07:26:44.989Z,4.00
2022-09-18T07:27:44.989Z,3.50
2022-09-18T07:28:44.992Z,3.40
2022-09-18T07:29:44.959Z,4.40
2022-09-18T07:30:44.957Z,3.50
2022-09-18T07:31:44.977Z,3.30
2022-09-18T07:32:44.921Z,5.60
2022-09-18T07:33:45.019Z,3.70
2022-09-18T07:34:45.021Z,4.30
2022-09-18T07:35:44.905Z,3.30
2022-09-18T07:36:44.893Z,4.60
2022-09-18T07:37:44.907Z,3.10
2022-09-18T07:38:44.869Z,4.50
2022-09-18T07:39:44.850Z,4.50
2022-09-18T07:40:44.836Z,3.50
2022-09-18T07:41:44.840Z,4.70
2022-09-18T07:42:44.812Z,3.80
2022-09-18T07:43:44.834Z,3.30
2022-09-18T07:44:44.795Z,3.40
2022-09-18T07:45:44.788Z,4.00
2022-09-18T07:46:44.848Z,2.20
2022-09-18T07:47:44.762Z,4.50
2022-09-18T07:48:44.759Z,3.90
2022-09-18T07:49:44.762Z,4.50
2022-09-18T07:50:44.844Z,2.70
2022-09-18T07:51:44.718Z,3.00
2022-09-18T07:52:44.703Z,3.70
2022-09-18T07:53:44.720Z,3.00
2022-09-18T07:54:44.696Z,2.30
2022-09-18T07:55:44.674Z,1.70
2022-09-18T07:56:46.931Z,3.80
2022-09-18T07:57:44.653Z,3.80
2022-09-18T07:58:44.636Z,3.20
2022-09-18T07:59:44.644Z,3.00
2022-09-18T08:00:44.619Z,2.20
2022-09-18T08:01:44.762Z,3.70
2022-09-18T08:02:44.704Z,2.60
2022-09-18T08:03:44.600Z,1.90
2022-09-18T08:04:44.607Z,4.70
2022-09-18T08:05:44.576Z,6.20
2022-09-18T08:06:44.682Z,3.80
2022-09-18T08:07:44.573Z,3.00
2022-09-18T08:08:46.712Z,4.20
2022-09-18T08:09:44.529Z,4.10
2022-09-18T08:10:44.556Z,4.30
2022-09-18T08:11:44.526Z,6.10
2022-09-18T08:12:44.485Z,3.70
2022-09-18T08:13:44.484Z,4.00
2022-09-18T08:14:44.467Z,3.40
2022-09-18T08:15:44.485Z,3.20
2022-09-18T08:16:44.506Z,4.30
2022-09-18T08:17:44.446Z,3.20
2022-09-18T08:18:44.439Z,4.90
2022-09-18T08:19:44.407Z,4.90
2022-09-18T08:20:44.465Z,4.10
2022-09-18T08:21:44.386Z,4.50
2022-09-18T08:22:44.505Z,5.90
2022-09-18T08:23:44.371Z,5.10
2022-09-18T08:24:44.387Z,6.30
2022-09-18T08:25:44.344Z,3.00
2022-09-18T08:26:44.336Z,5.10
2022-09-18T08:27:44.324Z,5.00
2022-09-18T08:28:44.330Z,4.80
2022-09-18T08:29:44.299Z,5.10
2022-09-18T08:30:44.292Z,4.30
2022-09-18T08:31:44.373Z,4.90
2022-09-18T08:32:44.271Z,4.90
2022-09-18T08:33:44.281Z,4.00
2022-09-18T08:34:44.268Z,5.30
2022-09-18T08:35:44.237Z,5.00
2022-09-18T08:36:44.239Z,4.80
2022-09-18T08:37:44.232Z,5.50
2022-09-18T08:38:44.328Z,4.40
2022-09-18T08:39:44.190Z,4.90
2022-09-18T08:40:44.341Z,3.40
2022-09-18T08:41:44.198Z,4.20
2022-09-18T08:42:44.174Z,5.80
2022-09-18T08:43:44.145Z,3.20
2022-09-18T08:44:44.144Z,7.20
2022-09-18T08:45:44.130Z,4.10
2022-09-18T08:46:44.215Z,5.60
2022-09-18T08:47:44.113Z,4.70
2022-09-18T08:48:44.106Z,4.60
2022-09-18T08:49:44.095Z,5.40
2022-09-18T08:50:51.574Z,3.20
2022-09-18T08:51:44.068Z,3.70
2022-09-18T08:52:44.052Z,3.80
2022-09-18T08:53:44.039Z,3.40
2022-09-18T08:54:44.148Z,4.40
2022-09-18T08:55:44.031Z,3.30
2022-09-18T08:56:44.006Z,3.10
2022-09-18T08:57:43.992Z,3.00
2022-09-18T08:58:43.984Z,4.30
2022-09-18T08:59:43.968Z,3.80
2022-09-18T09:00:44.037Z,3.70
2022-09-18T09:01:43.988Z,3.60
2022-09-18T09:02:43.957Z,3.40
2022-09-18T09:03:43.926Z,3.40
2022-09-18T09:04:43.944Z,2.80
2022-09-18T09:05:43.917Z,4.60
2022-09-18T09:06:43.905Z,4.40
2022-09-18T09:07:43.883Z,4.00
2022-09-18T09:08:43.876Z,4.30
2022-09-18T09:09:43.861Z,3.20
2022-09-18T09:10:43.982Z,2.70
2022-09-18T09:11:43.838Z,4.30
2022-09-18T09:12:43.842Z,3.10
2022-09-18T09:13:43.831Z,4.80
2022-09-18T09:14:57.262Z,2.80
2022-09-18T09:15:44.810Z,3.30
2022-09-18T09:16:43.893Z,4.90
2022-09-18T09:17:43.806Z,5.20
2022-09-18T09:18:43.796Z,3.20
2022-09-18T09:19:43.761Z,5.30
2022-09-18T09:20:43.753Z,4.80
2022-09-18T09:21:43.754Z,3.80
2022-09-18T09:22:43.728Z,4.40
2022-09-18T09:23:43.715Z,4.90
2022-09-18T09:24:43.745Z,5.70
2022-09-18T09:25:43.683Z,3.60
2022-09-18T09:26:43.809Z,3.90
2022-09-18T09:27:43.672Z,4.00
2022-09-18T09:28:43.672Z,4.80
2022-09-18T09:29:43.638Z,3.10
2022-09-18T09:30:43.637Z,3.80
2022-09-18T09:31:43.656Z,3.70
2022-09-18T09:32:43.611Z,4.40
2022-09-18T09:33:43.628Z,4.20
2022-09-18T09:34:43.600Z,4.10
2022-09-18T09:35:43.572Z,3.80
2022-09-18T09:36:43.566Z,3.70
2022-09-18T09:37:43.559Z,4.20
2022-09-18T09:38:43.559Z,2.60
2022-09-18T09:39:43.556Z,2.90
2022-09-18T09:40:43.624Z,5.10
2022-09-18T09:41:43.551Z,4.40
2022-09-18T09:42:43.614Z,4.00
2022-09-18T09:43:43.517Z,2.60
2022-09-18T09:44:43.485Z,2.50
2022-09-18T09:45:43.480Z,3.00
2022-09-18T09:46:43.503Z,2.50
2022-09-18T09:47:43.449Z,3.00
2022-09-18T09:48:43.445Z,2.40
2022-09-18T09:49:43.446Z,3.00
2022-09-18T09:50:43.436Z,4.50
2022-09-18T09:51:43.410Z,4.10
2022-09-18T09:52:43.407Z,3.00
2022-09-18T09:53:43.376Z,2.10
2022-09-18T09:54:43.371Z,4.10
2022-09-18T09:55:43.374Z,3.50
2022-09-18T09:56:43.369Z,2.40
2022-09-18T09:57:43.334Z,2.60
2022-09-18T09:58:43.451Z,2.90
2022-09-18T09:59:43.323Z,2.50
2022-09-18T10:00:43.365Z,3.50
2022-09-18T10:01:43.342Z,3.40
2022-09-18T10:02:43.294Z,3.60
2022-09-18T10:03:43.279Z,3.00
2022-09-18T10:04:43.265Z,2.90
2022-09-18T10:05:43.252Z,2.00
2022-09-18T10:06:43.314Z,3.60
2022-09-18T10:07:43.246Z,2.90
2022-09-18T10:08:43.215Z,2.70
2022-09-18T10:09:43.248Z,2.30
2022-09-18T10:10:43.206Z,2.00
2022-09-18T10:11:43.210Z,2.80
2022-09-18T10:12:43.172Z,1.90
2022-09-18T10:13:43.168Z,3.20
2022-09-18T10:14:43.267Z,2.90
2022-09-18T10:15:43.169Z,2.80
2022-09-18T10:16:43.230Z,2.30
2022-09-18T10:17:43.138Z,1.90
2022-09-18T10:18:43.131Z,2.20
2022-09-18T10:19:43.099Z,1.40
2022-09-18T10:20:43.095Z,1.80
2022-09-18T10:21:43.099Z,1.30
2022-09-18T10:22:43.063Z,2.10
2022-09-18T10:23:43.058Z,3.20
2022-09-18T10:24:43.056Z,4.10
2022-09-18T10:25:43.046Z,2.20
2022-09-18T10:26:43.016Z,2.70
2022-09-18T10:27:43.016Z,2.60
2022-09-18T10:28:43.048Z,3.20
2022-09-18T10:29:43.019Z,3.10
2022-09-18T10:30:43.088Z,2.20
2022-09-18T10:31:43.030Z,3.00
2022-09-18T10:32:42.970Z,1.20
2022-09-18T10:33:42.937Z,2.10
2022-09-18T10:34:42.939Z,2.20
2022-09-18T10:35:42.935Z,2.20
2022-09-18T10:36:42.928Z,1.80
2022-09-18T10:37:42.897Z,2.30
2022-09-18T10:38:42.902Z,2.70
2022-09-18T10:39:42.901Z,5.20
2022-09-18T10:40:42.927Z,2.80
2022-09-18T10:41:42.862Z,2.70
2022-09-18T10:42:42.857Z,2.50
2022-09-18T10:43:42.854Z,3.20
2022-09-18T10:44:42.821Z,2.40
2022-09-18T10:45:42.815Z,3.70
2022-09-18T10:46:42.976Z,3.30
2022-09-18T10:47:42.783Z,2.30
2022-09-18T10:48:42.805Z,1.70
2022-09-18T10:49:42.778Z,3.30
2022-09-18T10:50:42.774Z,3.50
2022-09-18T11:17:46.712Z,1.20
2022-09-18T11:18:25.583Z,2.90
2022-09-18T11:19:25.555Z,1.90
2022-09-18T11:20:25.573Z,2.10
2022-09-18T11:21:25.544Z,2.30
2022-09-18T11:22:25.538Z,2.90
2022-09-18T11:23:25.510Z,1.50
2022-09-18T11:24:25.531Z,2.80
2022-09-18T11:25:25.508Z,1.60
2022-09-18T11:26:25.520Z,2.90
2022-09-18T11:27:25.510Z,1.70
2022-09-18T11:28:25.469Z,2.90
2022-09-18T11:29:25.460Z,2.80
2022-09-18T11:30:25.458Z,3.10
2022-09-18T11:31:25.522Z,1.30
2022-09-18T11:32:25.417Z,1.70
2022-09-18T11:33:25.518Z,2.50
2022-09-18T11:34:25.414Z,2.90
2022-09-18T11:35:25.385Z,0.90
2022-09-18T11:36:25.381Z,1.40
2022-09-18T11:37:25.386Z,2.40
2022-09-18T11:38:25.380Z,2.60
2022-09-18T11:39:25.345Z,2.20
2022-09-18T11:40:25.430Z,2.30
2022-09-18T11:41:25.314Z,2.20
2022-09-18T11:42:25.308Z,2.60
2022-09-18T11:43:25.305Z,1.80
2022-09-18T11:44:25.303Z,1.50
2022-09-18T11:45:25.305Z,2.40
2022-09-18T11:46:25.345Z,1.10
2022-09-18T11:47:25.269Z,2.10
2022-09-18T11:48:25.285Z,2.60
2022-09-18T11:49:25.369Z,2.20
2022-09-18T11:50:25.272Z,1.30
2022-09-18T11:51:25.217Z,2.40
2022-09-18T11:52:25.196Z,2.90
2022-09-18T11:53:25.222Z,1.30
2022-09-18T11:54:25.184Z,2.60
2022-09-18T11:55:25.158Z,1.90
2022-09-18T11:56:25.151Z,1.50
2022-09-18T11:57:25.148Z,1.70
2022-09-18T11:58:25.143Z,2.80
2022-09-18T11:59:25.144Z,2.00
2022-09-18T12:00:25.110Z,1.30
2022-09-18T12:01:25.107Z,1.20
2022-09-18T12:02:25.217Z,1.60
2022-09-18T12:03:25.118Z,1.60
2022-09-18T12:04:25.064Z,1.30
2022-09-18T12:05:25.178Z,1.90
2022-09-18T12:06:25.062Z,2.90
2022-09-18T12:07:38.389Z,3.20
2022-09-18T12:08:23.681Z,1.80
2022-09-18T12:09:23.649Z,1.30
2022-09-18T12:10:23.650Z,1.20
2022-09-18T12:11:23.637Z,1.40
2022-09-18T12:12:23.625Z,2.40
2022-09-18T12:13:23.599Z,2.00
2022-09-18T12:14:23.627Z,2.30
2022-09-18T12:15:23.593Z,1.90
2022-09-18T12:16:23.625Z,1.10
2022-09-18T12:17:23.558Z,4.00
2022-09-18T12:18:23.550Z,1.60
2022-09-18T12:19:23.546Z,2.10
2022-09-18T12:20:23.528Z,1.40
2022-09-18T12:21:23.623Z,1.60
2022-09-18T12:22:23.506Z,1.00
2022-09-18T12:23:23.497Z,2.40
2022-09-18T12:24:23.510Z,2.70
2022-09-18T12:25:23.466Z,3.90
2022-09-18T12:26:23.467Z,2.00
2022-09-18T12:27:27.505Z,2.10
2022-09-18T12:28:23.495Z,3.20
2022-09-18T12:29:23.423Z,2.20
2022-09-18T12:30:23.414Z,2.00
2022-09-18T12:31:23.427Z,1.20
2022-09-18T12:32:23.440Z,2.40
2022-09-18T12:33:23.377Z,1.70
2022-09-18T12:34:23.378Z,1.30
2022-09-18T12:35:23.379Z,0.80
2022-09-18T12:36:23.335Z,2.80
2022-09-18T12:37:23.439Z,2.50
2022-09-18T12:38:23.334Z,1.80
2022-09-18T12:39:23.980Z,1.00
2022-09-18T12:40:24.038Z,2.50
2022-09-18T12:41:23.962Z,1.40
2022-09-18T12:42:23.937Z,1.60
2022-09-18T12:43:23.928Z,0.80
2022-09-18T12:44:23.918Z,1.40
2022-09-18T12:45:23.959Z,1.80
2022-09-18T12:46:23.890Z,2.10
2022-09-18T12:47:23.887Z,1.30
2022-09-18T12:48:23.881Z,1.20
2022-09-18T12:49:23.851Z,1.40
2022-09-18T12:50:23.872Z,1.60
2022-09-18T12:51:23.844Z,1.70
2022-09-18T12:52:27.062Z,2.20
2022-09-18T12:53:23.923Z,2.10
2022-09-18T12:54:23.797Z,1.30
2022-09-18T12:55:23.798Z,1.10
2022-09-18T12:56:23.793Z,2.40
2022-09-18T12:57:23.758Z,1.50
2022-09-18T12:58:23.756Z,1.30
2022-09-18T12:59:23.774Z,1.70
2022-09-18T13:00:23.753Z,1.30
2022-09-18T13:01:23.805Z,1.10
2022-09-18T13:02:23.721Z,1.60
2022-09-18T13:03:23.736Z,2.50
2022-09-18T13:04:23.712Z,2.80
2022-09-18T13:05:23.671Z,1.40
2022-09-18T13:06:23.666Z,1.60
2022-09-18T13:07:23.672Z,2.50
2022-09-18T13:08:23.635Z,1.80
2022-09-18T13:09:25.934Z,2.20
2022-09-18T13:10:23.628Z,1.80
2022-09-18T13:11:23.599Z,1.70
2022-09-18T13:12:23.599Z,1.80
2022-09-18T13:13:23.587Z,2.00
2022-09-18T13:14:23.580Z,1.90
2022-09-18T13:15:23.572Z,1.20
2022-09-18T13:16:24.318Z,2.70
2022-09-18T13:31:26.383Z,2.30
2022-09-18T13:32:26.147Z,1.20
2022-09-18T13:33:26.143Z,1.60
2022-09-18T13:34:26.145Z,1.60
2022-09-18T13:35:26.130Z,1.50
2022-09-18T13:36:26.100Z,3.60
2022-09-18T13:37:26.109Z,1.10
2022-09-18T13:38:26.100Z,2.00
2022-09-18T13:39:26.069Z,1.10
2022-09-18T13:40:26.110Z,1.00
2022-09-18T13:41:26.059Z,1.60
2022-09-18T13:42:26.060Z,1.60
2022-09-18T13:43:26.035Z,2.60
2022-09-18T13:44:26.021Z,2.70
2022-09-18T13:45:26.015Z,1.70
2022-09-18T13:46:26.040Z,1.60
2022-09-18T13:47:26.089Z,1.30
2022-09-18T13:48:25.971Z,1.90
2022-09-18T13:49:25.963Z,1.40
2022-09-18T13:50:25.964Z,1.70
2022-09-18T13:51:29.546Z,3.10
2022-09-18T13:52:26.917Z,1.10
2022-09-18T13:53:25.922Z,2.20
2022-09-18T13:54:25.889Z,1.30
2022-09-18T13:55:25.894Z,1.80
2022-09-18T13:56:25.884Z,1.00
2022-09-18T13:57:25.860Z,2.20
2022-09-18T13:58:25.845Z,2.10